Himawari 2 — JG5636 — position and weather

sailwx.info

Track history (hours):
 
Tides and Currents Weather Stations Pressure Air Temp Water Temp Dewpoint Dewpoint Depression Visibility Wind Speed Wind Dir Waves Ship Positions

Himawari 2

Last reported at 2016-Sep-26 08:34 UTC. Time now 2016-Sep-26 17:18 UTC.
Position N 34°21' E 135°00'.

Length 161 m; draft 6.5 m.

Type: Cargo ship. MMSI: 431100957.

Date/timePositionNaut miles runAvg speedWind from/ knotsBaromVisibWave heightAir tempDewpointWater temp
2016-Sep-26 08:34N 34°21' E 135°00'27 4.5
2016-Sep-26 02:29N 34°40' E 135°24'0 0.0
2016-Sep-26 01:29N 34°40' E 135°24'0 0.0
2016-Sep-26 00:29N 34°40' E 135°24'0 0.0
2016-Sep-25 21:29N 34°40' E 135°24'0 0.0
2016-Sep-25 17:29N 34°40' E 135°24'0 0.0
2016-Sep-25 16:29N 34°40' E 135°24'0 0.0
2016-Sep-25 15:29N 34°40' E 135°24'0 0.0
2016-Sep-25 14:29N 34°40' E 135°24'0 0.0
2016-Sep-25 12:29N 34°40' E 135°24'0 0.0
2016-Sep-25 11:29N 34°40' E 135°24'0 0.0
2016-Sep-25 10:29N 34°40' E 135°24'0 0.0
2016-Sep-25 09:29N 34°40' E 135°24'0 0.0
2016-Sep-25 07:29N 34°40' E 135°24'0 0.0
2016-Sep-25 04:29N 34°40' E 135°24'0 0.1
2016-Sep-25 00:33N 34°39' E 135°24'3617.9
2016-Sep-24 22:34N 34°10' E 134°60'16416.0
2016-Sep-24 12:18N 34°21' E 138°18'10512.0
2016-Sep-24 03:33N 35°36' E 139°48'0 0.0
2016-Sep-24 02:33N 35°36' E 139°48'0 0.0
2016-Sep-24 01:33N 35°36' E 139°48'0 0.4
2016-Sep-24 00:33N 35°36' E 139°48'43 8.6
2016-Sep-23 19:33N 35°14' E 140°33'4521.9
2016-Sep-23 17:30N 35°53' E 141°01'  
2016-Sep-21 03:34N 34°57' E 140°13'2120.6
2016-Sep-21 02:32N 34°53' E 139°48'39 4.3
2016-Sep-20 17:30N 35°31' E 139°53'0 0.0
2016-Sep-20 14:33N 35°31' E 139°53'0 0.0
2016-Sep-20 13:33N 35°31' E 139°53'7 2.3
2016-Sep-20 10:31N 35°36' E 139°48'0 0.0
2016-Sep-20 08:31N 35°36' E 139°48'0 0.0
2016-Sep-20 07:31N 35°36' E 139°48'0 0.0
2016-Sep-20 06:31N 35°36' E 139°48'0 0.0
2016-Sep-20 02:31N 35°36' E 139°48'0 0.0
2016-Sep-19 23:33N 35°36' E 139°48'5 1.1
2016-Sep-19 19:33N 35°34' E 139°53'0 0.0
2016-Sep-19 18:33N 35°34' E 139°53'0 0.0
2016-Sep-19 16:33N 35°34' E 139°53'0 0.0
2016-Sep-19 14:33N 35°34' E 139°53'0 0.0
2016-Sep-19 13:33N 35°34' E 139°53'0 0.0
2016-Sep-19 12:33N 35°34' E 139°53'0 0.0
2016-Sep-19 11:31N 35°34' E 139°53'0 0.0
2016-Sep-19 09:31N 35°34' E 139°53'0 0.0
2016-Sep-19 07:31N 35°34' E 139°53'0 0.1
2016-Sep-19 06:31N 35°34' E 139°53'0 0.0
2016-Sep-19 03:31N 35°34' E 139°53'0 0.0
2016-Sep-19 02:31N 35°34' E 139°53'19 9.8
2016-Sep-19 00:33N 35°15' E 139°47'9016.7
2016-Sep-18 19:10N 34°20' E 138°21'147 8.8
2016-Sep-18 02:32N 34°40' E 135°24'0 0.0
2016-Sep-18 01:32N 34°40' E 135°24'0 0.0
2016-Sep-18 00:32N 34°40' E 135°24'12 5.9
2016-Sep-17 22:33N 34°31' E 135°14'2120.8
2016-Sep-17 21:33N 34°15' E 134°59'16717.8
2016-Sep-17 12:11N 34°21' E 138°21'6623.3
2016-Sep-17 09:22N 34°56' E 139°28'1721.6
2016-Sep-17 08:34N 35°08' E 139°44'1212.2
2016-Sep-17 07:34N 35°20' E 139°42'17 8.2
2016-Sep-17 05:33N 35°36' E 139°48'0 0.0
2016-Sep-17 04:33N 35°36' E 139°48'2 0.5
2016-Sep-17 00:33N 35°34' E 139°48'68 9.7
2016-Sep-16 17:33N 36°01' E 141°05'4623.3
2016-Sep-16 15:34N 36°48' E 141°10'  
Track history (hours):
 
Tides and Currents Weather Stations Pressure Air Temp Water Temp Dewpoint Dewpoint Depression Visibility Wind Speed Wind Dir Waves Ship Positions

Himawari 2

Last reported at 2016-Sep-26 08:34 UTC. Time now 2016-Sep-26 17:18 UTC.
Position N 34°21' E 135°00'.

Length 161 m; draft 6.5 m.

Type: Cargo ship. MMSI: 431100957.

Date/timePositionNaut miles runAvg speedWind from/ knotsBaromVisibWave heightAir tempDewpointWater temp
2016-Sep-26 08:34N 34°21' E 135°00'27 4.5
2016-Sep-26 02:29N 34°40' E 135°24'0 0.0
2016-Sep-26 01:29N 34°40' E 135°24'0 0.0
2016-Sep-26 00:29N 34°40' E 135°24'0 0.0
2016-Sep-25 21:29N 34°40' E 135°24'0 0.0
2016-Sep-25 17:29N 34°40' E 135°24'0 0.0
2016-Sep-25 16:29N 34°40' E 135°24'0 0.0
2016-Sep-25 15:29N 34°40' E 135°24'0 0.0
2016-Sep-25 14:29N 34°40' E 135°24'0 0.0
2016-Sep-25 12:29N 34°40' E 135°24'0 0.0
2016-Sep-25 11:29N 34°40' E 135°24'0 0.0
2016-Sep-25 10:29N 34°40' E 135°24'0 0.0
2016-Sep-25 09:29N 34°40' E 135°24'0 0.0
2016-Sep-25 07:29N 34°40' E 135°24'0 0.0
2016-Sep-25 04:29N 34°40' E 135°24'0 0.1
2016-Sep-25 00:33N 34°39' E 135°24'3617.9
2016-Sep-24 22:34N 34°10' E 134°60'16416.0
2016-Sep-24 12:18N 34°21' E 138°18'10512.0
2016-Sep-24 03:33N 35°36' E 139°48'0 0.0
2016-Sep-24 02:33N 35°36' E 139°48'0 0.0
2016-Sep-24 01:33N 35°36' E 139°48'0 0.4
2016-Sep-24 00:33N 35°36' E 139°48'43 8.6
2016-Sep-23 19:33N 35°14' E 140°33'4521.9
2016-Sep-23 17:30N 35°53' E 141°01'  
2016-Sep-21 03:34N 34°57' E 140°13'2120.6
2016-Sep-21 02:32N 34°53' E 139°48'39 4.3
2016-Sep-20 17:30N 35°31' E 139°53'0 0.0
2016-Sep-20 14:33N 35°31' E 139°53'0 0.0
2016-Sep-20 13:33N 35°31' E 139°53'7 2.3
2016-Sep-20 10:31N 35°36' E 139°48'0 0.0
2016-Sep-20 08:31N 35°36' E 139°48'0 0.0
2016-Sep-20 07:31N 35°36' E 139°48'0 0.0
2016-Sep-20 06:31N 35°36' E 139°48'0 0.0
2016-Sep-20 02:31N 35°36' E 139°48'0 0.0
2016-Sep-19 23:33N 35°36' E 139°48'5 1.1
2016-Sep-19 19:33N 35°34' E 139°53'0 0.0
2016-Sep-19 18:33N 35°34' E 139°53'0 0.0
2016-Sep-19 16:33N 35°34' E 139°53'0 0.0
2016-Sep-19 14:33N 35°34' E 139°53'0 0.0
2016-Sep-19 13:33N 35°34' E 139°53'0 0.0
2016-Sep-19 12:33N 35°34' E 139°53'0 0.0
2016-Sep-19 11:31N 35°34' E 139°53'0 0.0
2016-Sep-19 09:31N 35°34' E 139°53'0 0.0
2016-Sep-19 07:31N 35°34' E 139°53'0 0.1
2016-Sep-19 06:31N 35°34' E 139°53'0 0.0
2016-Sep-19 03:31N 35°34' E 139°53'0 0.0
2016-Sep-19 02:31N 35°34' E 139°53'19 9.8
2016-Sep-19 00:33N 35°15' E 139°47'9016.7
2016-Sep-18 19:10N 34°20' E 138°21'147 8.8
2016-Sep-18 02:32N 34°40' E 135°24'0 0.0
2016-Sep-18 01:32N 34°40' E 135°24'0 0.0
2016-Sep-18 00:32N 34°40' E 135°24'12 5.9
2016-Sep-17 22:33N 34°31' E 135°14'2120.8
2016-Sep-17 21:33N 34°15' E 134°59'16717.8
2016-Sep-17 12:11N 34°21' E 138°21'6623.3
2016-Sep-17 09:22N 34°56' E 139°28'1721.6
2016-Sep-17 08:34N 35°08' E 139°44'1212.2
2016-Sep-17 07:34N 35°20' E 139°42'17 8.2
2016-Sep-17 05:33N 35°36' E 139°48'0 0.0
2016-Sep-17 04:33N 35°36' E 139°48'2 0.5
2016-Sep-17 00:33N 35°34' E 139°48'68 9.7
2016-Sep-16 17:33N 36°01' E 141°05'4623.3
2016-Sep-16 15:34N 36°48' E 141°10'  

Dump ship's entire track history